Terminal Aerodrome Forecast
Issued by NWS

Home | Current Version | Previous Version | Text Only | Print | Product List | Glossary On
Versions: 1 2 3 4 5 6 7 8 9 10 11 12 13 14 15 16 17 18 19 20 21 22 23
000
FTUS43 KAPX 050520
TAFMBL
TAF
KMBL 050520Z 0506/0606 00000KT P6SM SCT050 BKN090
     FM050900 09003KT P6SM SCT090
     FM051500 31007KT P6SM FEW050
     FM060100 00000KT P6SM SKC
      AMD LTD TO CLD VIS AND WIND=

USA.gov is the U.S. government's official web portal to all federal, state and local government web resources and services.